sensor_id;sensor_type;location;lat;lon;timestamp;P1;durP1;ratioP1;P2;durP2;ratioP2
78209;SDS011;67485;48.816;9.930;2023-09-19T00:00:15;2.93;;;0.80;;
78209;SDS011;67485;48.816;9.930;2023-09-19T00:02:40;2.13;;;0.85;;
78209;SDS011;67485;48.816;9.930;2023-09-19T00:05:06;1.83;;;0.80;;
78209;SDS011;67485;48.816;9.930;2023-09-19T00:07:34;3.13;;;0.80;;
78209;SDS011;67485;48.816;9.930;2023-09-19T00:10:02;2.67;;;0.80;;
78209;SDS011;67485;48.816;9.930;2023-09-19T00:12:27;1.73;;;0.75;;
78209;SDS011;67485;48.816;9.930;2023-09-19T00:14:53;1.80;;;0.70;;
78209;SDS011;67485;48.816;9.930;2023-09-19T00:17:19;2.33;;;0.70;;
78209;SDS011;67485;48.816;9.930;2023-09-19T00:19:44;1.60;;;0.70;;
78209;SDS011;67485;48.816;9.930;2023-09-19T00:22:11;3.40;;;0.90;;
78209;SDS011;67485;48.816;9.930;2023-09-19T00:24:38;1.90;;;0.80;;
78209;SDS011;67485;48.816;9.930;2023-09-19T00:27:04;1.85;;;0.95;;
78209;SDS011;67485;48.816;9.930;2023-09-19T00:29:31;1.70;;;0.80;;
78209;SDS011;67485;48.816;9.930;2023-09-19T00:31:56;1.80;;;0.70;;
78209;SDS011;67485;48.816;9.930;2023-09-19T00:34:22;1.52;;;0.80;;
78209;SDS011;67485;48.816;9.930;2023-09-19T00:36:50;1.77;;;0.80;;
78209;SDS011;67485;48.816;9.930;2023-09-19T00:39:18;2.07;;;0.80;;
78209;SDS011;67485;48.816;9.930;2023-09-19T00:41:45;1.70;;;0.90;;
78209;SDS011;67485;48.816;9.930;2023-09-19T00:44:11;3.53;;;0.80;;
78209;SDS011;67485;48.816;9.930;2023-09-19T00:46:37;4.03;;;0.70;;
78209;SDS011;67485;48.816;9.930;2023-09-19T00:49:03;2.28;;;0.80;;
78209;SDS011;67485;48.816;9.930;2023-09-19T00:51:28;2.00;;;0.73;;
78209;SDS011;67485;48.816;9.930;2023-09-19T00:53:55;3.40;;;1.10;;
78209;SDS011;67485;48.816;9.930;2023-09-19T00:56:21;1.63;;;0.80;;
78209;SDS011;67485;48.816;9.930;2023-09-19T00:58:46;2.30;;;0.90;;
78209;SDS011;67485;48.816;9.930;2023-09-19T01:01:13;1.63;;;0.70;;
78209;SDS011;67485;48.816;9.930;2023-09-19T01:03:42;1.73;;;0.90;;
78209;SDS011;67485;48.816;9.930;2023-09-19T01:06:09;2.40;;;0.80;;
78209;SDS011;67485;48.816;9.930;2023-09-19T01:08:38;2.47;;;0.90;;
78209;SDS011;67485;48.816;9.930;2023-09-19T01:11:50;1.60;;;0.80;;
78209;SDS011;67485;48.816;9.930;2023-09-19T01:16:56;1.90;;;0.90;;
78209;SDS011;67485;48.816;9.930;2023-09-19T01:25:58;3.80;;;0.63;;
78209;SDS011;67485;48.816;9.930;2023-09-19T01:31:23;1.38;;;0.77;;
78209;SDS011;67485;48.816;9.930;2023-09-19T01:34:00;2.58;;;0.82;;
78209;SDS011;67485;48.816;9.930;2023-09-19T01:36:33;2.30;;;0.90;;
78209;SDS011;67485;48.816;9.930;2023-09-19T01:39:04;2.37;;;0.70;;
78209;SDS011;67485;48.816;9.930;2023-09-19T01:41:57;1.83;;;0.70;;
78209;SDS011;67485;48.816;9.930;2023-09-19T01:47:43;2.58;;;0.80;;
78209;SDS011;67485;48.816;9.930;2023-09-19T01:53:24;2.37;;;0.90;;
78209;SDS011;67485;48.816;9.930;2023-09-19T01:55:55;2.10;;;0.90;;
78209;SDS011;67485;48.816;9.930;2023-09-19T01:58:37;2.72;;;0.80;;
78209;SDS011;67485;48.816;9.930;2023-09-19T02:01:08;1.55;;;0.73;;
78209;SDS011;67485;48.816;9.930;2023-09-19T02:03:40;2.33;;;0.70;;
78209;SDS011;67485;48.816;9.930;2023-09-19T02:06:06;2.17;;;0.60;;
78209;SDS011;67485;48.816;9.930;2023-09-19T02:08:36;4.30;;;0.70;;
78209;SDS011;67485;48.816;9.930;2023-09-19T02:11:02;1.83;;;0.52;;
78209;SDS011;67485;48.816;9.930;2023-09-19T02:13:28;2.45;;;0.77;;
78209;SDS011;67485;48.816;9.930;2023-09-19T02:15:55;1.27;;;0.60;;
78209;SDS011;67485;48.816;9.930;2023-09-19T02:18:21;1.58;;;0.63;;
78209;SDS011;67485;48.816;9.930;2023-09-19T02:20:47;1.30;;;0.60;;
78209;SDS011;67485;48.816;9.930;2023-09-19T02:23:12;1.90;;;0.57;;
78209;SDS011;67485;48.816;9.930;2023-09-19T02:25:38;3.03;;;0.80;;
78209;SDS011;67485;48.816;9.930;2023-09-19T02:28:07;2.35;;;0.60;;
78209;SDS011;67485;48.816;9.930;2023-09-19T02:30:34;1.10;;;0.60;;
78209;SDS011;67485;48.816;9.930;2023-09-19T02:33:01;1.33;;;0.60;;
78209;SDS011;67485;48.816;9.930;2023-09-19T02:35:27;1.93;;;0.70;;
78209;SDS011;67485;48.816;9.930;2023-09-19T02:37:53;3.22;;;0.70;;
78209;SDS011;67485;48.816;9.930;2023-09-19T02:40:19;1.70;;;0.70;;
78209;SDS011;67485;48.816;9.930;2023-09-19T02:42:46;1.77;;;0.73;;
78209;SDS011;67485;48.816;9.930;2023-09-19T02:45:12;1.35;;;0.65;;
78209;SDS011;67485;48.816;9.930;2023-09-19T02:47:40;1.80;;;0.80;;
78209;SDS011;67485;48.816;9.930;2023-09-19T02:50:05;1.30;;;0.60;;
78209;SDS011;67485;48.816;9.930;2023-09-19T02:52:31;1.38;;;0.50;;
78209;SDS011;67485;48.816;9.930;2023-09-19T02:54:57;1.95;;;0.68;;
78209;SDS011;67485;48.816;9.930;2023-09-19T02:57:23;3.30;;;0.80;;
78209;SDS011;67485;48.816;9.930;2023-09-19T02:59:49;2.42;;;0.90;;
78209;SDS011;67485;48.816;9.930;2023-09-19T03:02:15;2.08;;;0.63;;
78209;SDS011;67485;48.816;9.930;2023-09-19T03:04:41;2.27;;;0.90;;
78209;SDS011;67485;48.816;9.930;2023-09-19T03:07:07;3.77;;;0.70;;
78209;SDS011;67485;48.816;9.930;2023-09-19T03:09:32;1.95;;;0.70;;
78209;SDS011;67485;48.816;9.930;2023-09-19T03:11:58;1.60;;;0.80;;
78209;SDS011;67485;48.816;9.930;2023-09-19T03:14:25;1.25;;;0.70;;
78209;SDS011;67485;48.816;9.930;2023-09-19T03:16:56;1.92;;;0.65;;
78209;SDS011;67485;48.816;9.930;2023-09-19T03:19:21;2.80;;;0.80;;
78209;SDS011;67485;48.816;9.930;2023-09-19T03:21:49;1.10;;;0.60;;
78209;SDS011;67485;48.816;9.930;2023-09-19T03:24:16;2.75;;;0.60;;
78209;SDS011;67485;48.816;9.930;2023-09-19T03:26:41;3.57;;;0.60;;
78209;SDS011;67485;48.816;9.930;2023-09-19T03:29:07;1.47;;;0.60;;
78209;SDS011;67485;48.816;9.930;2023-09-19T03:31:35;1.20;;;0.60;;
78209;SDS011;67485;48.816;9.930;2023-09-19T03:34:02;1.60;;;0.80;;
78209;SDS011;67485;48.816;9.930;2023-09-19T03:36:29;1.30;;;0.60;;
78209;SDS011;67485;48.816;9.930;2023-09-19T03:38:55;1.70;;;0.80;;
78209;SDS011;67485;48.816;9.930;2023-09-19T03:41:21;1.35;;;0.60;;
78209;SDS011;67485;48.816;9.930;2023-09-19T03:43:47;2.17;;;0.70;;
78209;SDS011;67485;48.816;9.930;2023-09-19T03:46:13;2.47;;;1.00;;
78209;SDS011;67485;48.816;9.930;2023-09-19T03:48:41;1.33;;;0.70;;
78209;SDS011;67485;48.816;9.930;2023-09-19T03:51:06;3.43;;;0.97;;
78209;SDS011;67485;48.816;9.930;2023-09-19T03:53:32;2.47;;;0.70;;
78209;SDS011;67485;48.816;9.930;2023-09-19T03:55:57;1.52;;;0.85;;
78209;SDS011;67485;48.816;9.930;2023-09-19T03:58:23;2.13;;;0.97;;
78209;SDS011;67485;48.816;9.930;2023-09-19T04:00:49;1.95;;;0.90;;
78209;SDS011;67485;48.816;9.930;2023-09-19T04:03:16;2.53;;;0.85;;
78209;SDS011;67485;48.816;9.930;2023-09-19T04:05:46;2.03;;;0.80;;
78209;SDS011;67485;48.816;9.930;2023-09-19T04:08:13;1.50;;;0.70;;
78209;SDS011;67485;48.816;9.930;2023-09-19T04:10:43;2.53;;;0.85;;
78209;SDS011;67485;48.816;9.930;2023-09-19T04:13:09;2.17;;;0.82;;
78209;SDS011;67485;48.816;9.930;2023-09-19T04:15:34;2.87;;;0.97;;
78209;SDS011;67485;48.816;9.930;2023-09-19T04:18:00;2.30;;;0.73;;
78209;SDS011;67485;48.816;9.930;2023-09-19T04:20:26;1.97;;;0.90;;
78209;SDS011;67485;48.816;9.930;2023-09-19T04:22:51;3.58;;;1.00;;
78209;SDS011;67485;48.816;9.930;2023-09-19T04:25:17;2.00;;;0.80;;
78209;SDS011;67485;48.816;9.930;2023-09-19T04:27:44;2.00;;;0.73;;
78209;SDS011;67485;48.816;9.930;2023-09-19T04:30:10;2.40;;;1.03;;
78209;SDS011;67485;48.816;9.930;2023-09-19T04:32:37;2.65;;;1.10;;
78209;SDS011;67485;48.816;9.930;2023-09-19T04:35:05;1.65;;;1.05;;
78209;SDS011;67485;48.816;9.930;2023-09-19T04:37:39;2.63;;;0.88;;
78209;SDS011;67485;48.816;9.930;2023-09-19T04:40:08;2.40;;;1.00;;
78209;SDS011;67485;48.816;9.930;2023-09-19T04:42:43;2.80;;;1.00;;
78209;SDS011;67485;48.816;9.930;2023-09-19T04:45:09;2.67;;;1.15;;
78209;SDS011;67485;48.816;9.930;2023-09-19T04:47:36;4.00;;;1.10;;
78209;SDS011;67485;48.816;9.930;2023-09-19T04:50:07;3.05;;;0.80;;
78209;SDS011;67485;48.816;9.930;2023-09-19T04:52:38;4.40;;;1.00;;
78209;SDS011;67485;48.816;9.930;2023-09-19T04:55:05;1.93;;;0.70;;
78209;SDS011;67485;48.816;9.930;2023-09-19T04:57:31;1.98;;;0.80;;
78209;SDS011;67485;48.816;9.930;2023-09-19T04:59:57;1.90;;;0.85;;
78209;SDS011;67485;48.816;9.930;2023-09-19T05:02:22;2.17;;;0.80;;
78209;SDS011;67485;48.816;9.930;2023-09-19T05:04:48;1.73;;;0.82;;
78209;SDS011;67485;48.816;9.930;2023-09-19T05:07:13;3.50;;;0.80;;
78209;SDS011;67485;48.816;9.930;2023-09-19T05:09:39;2.57;;;1.00;;
78209;SDS011;67485;48.816;9.930;2023-09-19T05:12:07;3.23;;;0.90;;
78209;SDS011;67485;48.816;9.930;2023-09-19T05:14:33;2.53;;;0.90;;
78209;SDS011;67485;48.816;9.930;2023-09-19T05:16:58;1.93;;;0.83;;
78209;SDS011;67485;48.816;9.930;2023-09-19T05:19:24;2.03;;;0.90;;
78209;SDS011;67485;48.816;9.930;2023-09-19T05:21:50;2.40;;;0.73;;
78209;SDS011;67485;48.816;9.930;2023-09-19T05:24:15;3.38;;;1.30;;
78209;SDS011;67485;48.816;9.930;2023-09-19T05:26:42;3.25;;;0.80;;
78209;SDS011;67485;48.816;9.930;2023-09-19T05:29:07;2.30;;;1.00;;
78209;SDS011;67485;48.816;9.930;2023-09-19T05:31:34;2.90;;;0.80;;
78209;SDS011;67485;48.816;9.930;2023-09-19T05:34:04;1.20;;;0.80;;
78209;SDS011;67485;48.816;9.930;2023-09-19T05:36:31;3.15;;;1.00;;
78209;SDS011;67485;48.816;9.930;2023-09-19T05:38:57;2.37;;;0.80;;
78209;SDS011;67485;48.816;9.930;2023-09-19T05:41:22;4.40;;;0.70;;
78209;SDS011;67485;48.816;9.930;2023-09-19T05:43:49;3.92;;;0.70;;
78209;SDS011;67485;48.816;9.930;2023-09-19T05:46:15;2.70;;;0.90;;
78209;SDS011;67485;48.816;9.930;2023-09-19T05:48:42;2.78;;;1.10;;
78209;SDS011;67485;48.816;9.930;2023-09-19T05:51:09;4.45;;;1.33;;
78209;SDS011;67485;48.816;9.930;2023-09-19T05:53:35;3.73;;;0.70;;
78209;SDS011;67485;48.816;9.930;2023-09-19T05:56:00;1.73;;;0.90;;
78209;SDS011;67485;48.816;9.930;2023-09-19T05:58:26;3.63;;;0.93;;
78209;SDS011;67485;48.816;9.930;2023-09-19T06:00:52;1.63;;;0.82;;
78209;SDS011;67485;48.816;9.930;2023-09-19T06:03:18;2.70;;;0.93;;
78209;SDS011;67485;48.816;9.930;2023-09-19T06:05:44;1.77;;;0.93;;
78209;SDS011;67485;48.816;9.930;2023-09-19T06:08:11;2.38;;;0.82;;
78209;SDS011;67485;48.816;9.930;2023-09-19T06:10:37;4.18;;;1.00;;
78209;SDS011;67485;48.816;9.930;2023-09-19T06:13:03;2.20;;;1.00;;
78209;SDS011;67485;48.816;9.930;2023-09-19T06:15:35;5.05;;;1.10;;
78209;SDS011;67485;48.816;9.930;2023-09-19T06:18:01;1.83;;;0.80;;
78209;SDS011;67485;48.816;9.930;2023-09-19T06:20:27;1.50;;;0.90;;
78209;SDS011;67485;48.816;9.930;2023-09-19T06:22:53;3.90;;;0.77;;
78209;SDS011;67485;48.816;9.930;2023-09-19T06:25:19;3.17;;;0.90;;
78209;SDS011;67485;48.816;9.930;2023-09-19T06:27:46;2.50;;;0.70;;
78209;SDS011;67485;48.816;9.930;2023-09-19T06:30:13;1.77;;;0.80;;
78209;SDS011;67485;48.816;9.930;2023-09-19T06:32:42;2.47;;;0.93;;
78209;SDS011;67485;48.816;9.930;2023-09-19T06:35:12;3.65;;;1.00;;
78209;SDS011;67485;48.816;9.930;2023-09-19T06:37:39;2.63;;;1.17;;
78209;SDS011;67485;48.816;9.930;2023-09-19T06:40:12;2.55;;;1.10;;
78209;SDS011;67485;48.816;9.930;2023-09-19T06:42:40;1.83;;;0.70;;
78209;SDS011;67485;48.816;9.930;2023-09-19T06:45:07;2.60;;;1.03;;
78209;SDS011;67485;48.816;9.930;2023-09-19T06:47:34;2.40;;;0.90;;
78209;SDS011;67485;48.816;9.930;2023-09-19T06:49:59;2.60;;;0.93;;
78209;SDS011;67485;48.816;9.930;2023-09-19T06:52:27;1.33;;;0.80;;
78209;SDS011;67485;48.816;9.930;2023-09-19T06:54:53;2.47;;;1.00;;
78209;SDS011;67485;48.816;9.930;2023-09-19T06:57:19;2.53;;;0.90;;
78209;SDS011;67485;48.816;9.930;2023-09-19T06:59:45;1.93;;;0.90;;
78209;SDS011;67485;48.816;9.930;2023-09-19T07:02:11;2.25;;;1.00;;
78209;SDS011;67485;48.816;9.930;2023-09-19T07:04:38;2.47;;;0.70;;
78209;SDS011;67485;48.816;9.930;2023-09-19T07:07:03;1.40;;;0.70;;
78209;SDS011;67485;48.816;9.930;2023-09-19T07:09:29;1.50;;;0.70;;
78209;SDS011;67485;48.816;9.930;2023-09-19T07:11:55;3.93;;;0.97;;
78209;SDS011;67485;48.816;9.930;2023-09-19T07:14:21;2.80;;;0.95;;
78209;SDS011;67485;48.816;9.930;2023-09-19T07:16:47;2.50;;;0.90;;
78209;SDS011;67485;48.816;9.930;2023-09-19T07:19:15;3.10;;;1.13;;
78209;SDS011;67485;48.816;9.930;2023-09-19T07:21:41;2.17;;;0.80;;
78209;SDS011;67485;48.816;9.930;2023-09-19T07:24:07;1.50;;;0.90;;
78209;SDS011;67485;48.816;9.930;2023-09-19T07:26:36;2.03;;;1.00;;
78209;SDS011;67485;48.816;9.930;2023-09-19T07:29:02;2.97;;;1.13;;
78209;SDS011;67485;48.816;9.930;2023-09-19T07:31:31;2.20;;;1.20;;
78209;SDS011;67485;48.816;9.930;2023-09-19T07:33:57;2.27;;;1.03;;
78209;SDS011;67485;48.816;9.930;2023-09-19T07:36:25;3.22;;;1.10;;
78209;SDS011;67485;48.816;9.930;2023-09-19T07:38:51;3.97;;;1.40;;
78209;SDS011;67485;48.816;9.930;2023-09-19T07:41:16;2.00;;;1.13;;
78209;SDS011;67485;48.816;9.930;2023-09-19T07:43:42;2.90;;;1.10;;
78209;SDS011;67485;48.816;9.930;2023-09-19T07:46:10;2.00;;;1.00;;
78209;SDS011;67485;48.816;9.930;2023-09-19T07:48:36;2.22;;;1.05;;
78209;SDS011;67485;48.816;9.930;2023-09-19T07:51:04;2.85;;;1.17;;
78209;SDS011;67485;48.816;9.930;2023-09-19T07:53:31;3.38;;;1.10;;
78209;SDS011;67485;48.816;9.930;2023-09-19T07:56:06;3.83;;;1.10;;
78209;SDS011;67485;48.816;9.930;2023-09-19T07:58:33;3.25;;;1.13;;
78209;SDS011;67485;48.816;9.930;2023-09-19T08:01:03;3.95;;;1.10;;
78209;SDS011;67485;48.816;9.930;2023-09-19T08:03:30;2.70;;;1.17;;
78209;SDS011;67485;48.816;9.930;2023-09-19T08:05:56;3.33;;;1.50;;
78209;SDS011;67485;48.816;9.930;2023-09-19T08:08:23;2.80;;;1.10;;
78209;SDS011;67485;48.816;9.930;2023-09-19T08:10:55;2.78;;;0.98;;
78209;SDS011;67485;48.816;9.930;2023-09-19T08:13:24;3.40;;;1.20;;
78209;SDS011;67485;48.816;9.930;2023-09-19T08:15:51;3.00;;;1.25;;
78209;SDS011;67485;48.816;9.930;2023-09-19T08:18:20;3.88;;;1.27;;
78209;SDS011;67485;48.816;9.930;2023-09-19T08:20:49;4.32;;;1.20;;
78209;SDS011;67485;48.816;9.930;2023-09-19T08:23:18;3.15;;;1.35;;
78209;SDS011;67485;48.816;9.930;2023-09-19T08:25:45;2.33;;;1.00;;
78209;SDS011;67485;48.816;9.930;2023-09-19T08:28:12;3.85;;;1.23;;
78209;SDS011;67485;48.816;9.930;2023-09-19T08:30:42;2.67;;;1.30;;
78209;SDS011;67485;48.816;9.930;2023-09-19T08:33:08;2.17;;;1.20;;
78209;SDS011;67485;48.816;9.930;2023-09-19T08:35:34;3.60;;;1.58;;
78209;SDS011;67485;48.816;9.930;2023-09-19T08:38:00;3.72;;;1.20;;
78209;SDS011;67485;48.816;9.930;2023-09-19T08:40:32;3.00;;;1.30;;
78209;SDS011;67485;48.816;9.930;2023-09-19T08:43:01;3.13;;;1.17;;
78209;SDS011;67485;48.816;9.930;2023-09-19T08:45:26;2.90;;;1.20;;
78209;SDS011;67485;48.816;9.930;2023-09-19T08:48:03;4.00;;;1.40;;
78209;SDS011;67485;48.816;9.930;2023-09-19T08:51:02;2.80;;;1.38;;
78209;SDS011;67485;48.816;9.930;2023-09-19T08:53:52;4.20;;;1.35;;
78209;SDS011;67485;48.816;9.930;2023-09-19T08:56:29;3.47;;;1.25;;
78209;SDS011;67485;48.816;9.930;2023-09-19T08:59:04;3.63;;;1.08;;
78209;SDS011;67485;48.816;9.930;2023-09-19T09:01:32;3.73;;;1.37;;
78209;SDS011;67485;48.816;9.930;2023-09-19T09:03:58;2.78;;;1.00;;
78209;SDS011;67485;48.816;9.930;2023-09-19T09:06:24;2.47;;;1.23;;
78209;SDS011;67485;48.816;9.930;2023-09-19T09:08:51;3.30;;;1.50;;
78209;SDS011;67485;48.816;9.930;2023-09-19T09:11:17;3.95;;;1.20;;
78209;SDS011;67485;48.816;9.930;2023-09-19T09:13:45;2.85;;;1.20;;
78209;SDS011;67485;48.816;9.930;2023-09-19T09:16:11;2.80;;;1.10;;
78209;SDS011;67485;48.816;9.930;2023-09-19T09:18:38;3.17;;;1.13;;
78209;SDS011;67485;48.816;9.930;2023-09-19T09:21:13;3.20;;;1.33;;
78209;SDS011;67485;48.816;9.930;2023-09-19T09:23:40;5.25;;;1.10;;
78209;SDS011;67485;48.816;9.930;2023-09-19T09:26:06;2.97;;;1.45;;
78209;SDS011;67485;48.816;9.930;2023-09-19T09:28:33;2.20;;;1.17;;
78209;SDS011;67485;48.816;9.930;2023-09-19T09:31:00;2.42;;;1.27;;
78209;SDS011;67485;48.816;9.930;2023-09-19T09:33:33;3.25;;;1.20;;
78209;SDS011;67485;48.816;9.930;2023-09-19T09:36:01;2.85;;;1.50;;
78209;SDS011;67485;48.816;9.930;2023-09-19T09:38:29;2.60;;;1.10;;
78209;SDS011;67485;48.816;9.930;2023-09-19T09:40:59;3.77;;;1.40;;
78209;SDS011;67485;48.816;9.930;2023-09-19T09:43:37;2.70;;;1.30;;
78209;SDS011;67485;48.816;9.930;2023-09-19T09:46:06;2.88;;;1.10;;
78209;SDS011;67485;48.816;9.930;2023-09-19T09:48:42;5.78;;;1.23;;
78209;SDS011;67485;48.816;9.930;2023-09-19T09:51:11;2.88;;;1.15;;
78209;SDS011;67485;48.816;9.930;2023-09-19T09:53:45;2.27;;;1.07;;
78209;SDS011;67485;48.816;9.930;2023-09-19T09:56:11;2.15;;;0.75;;
78209;SDS011;67485;48.816;9.930;2023-09-19T10:01:13;2.13;;;1.00;;
78209;SDS011;67485;48.816;9.930;2023-09-19T10:03:40;2.60;;;1.00;;
78209;SDS011;67485;48.816;9.930;2023-09-19T10:06:13;2.20;;;0.90;;
78209;SDS011;67485;48.816;9.930;2023-09-19T10:09:10;2.47;;;1.20;;
78209;SDS011;67485;48.816;9.930;2023-09-19T10:12:00;2.03;;;0.95;;
78209;SDS011;67485;48.816;9.930;2023-09-19T10:14:30;3.50;;;1.50;;
78209;SDS011;67485;48.816;9.930;2023-09-19T10:17:00;5.22;;;1.20;;
78209;SDS011;67485;48.816;9.930;2023-09-19T10:19:32;3.37;;;1.17;;
78209;SDS011;67485;48.816;9.930;2023-09-19T10:22:02;2.78;;;1.13;;
78209;SDS011;67485;48.816;9.930;2023-09-19T10:24:31;2.22;;;1.08;;
78209;SDS011;67485;48.816;9.930;2023-09-19T10:27:00;3.53;;;1.30;;
78209;SDS011;67485;48.816;9.930;2023-09-19T10:29:26;2.00;;;1.00;;
78209;SDS011;67485;48.816;9.930;2023-09-19T10:31:56;1.80;;;1.00;;
78209;SDS011;67485;48.816;9.930;2023-09-19T10:34:29;2.03;;;1.10;;
78209;SDS011;67485;48.816;9.930;2023-09-19T10:36:55;2.60;;;1.00;;
78209;SDS011;67485;48.816;9.930;2023-09-19T10:39:21;2.93;;;1.13;;
78209;SDS011;67485;48.816;9.930;2023-09-19T10:41:53;3.17;;;1.40;;
78209;SDS011;67485;48.816;9.930;2023-09-19T10:44:26;2.00;;;1.20;;
78209;SDS011;67485;48.816;9.930;2023-09-19T10:46:53;2.60;;;1.20;;
78209;SDS011;67485;48.816;9.930;2023-09-19T10:49:20;2.95;;;1.27;;
78209;SDS011;67485;48.816;9.930;2023-09-19T10:51:47;3.10;;;1.30;;
78209;SDS011;67485;48.816;9.930;2023-09-19T10:54:18;2.53;;;0.90;;
78209;SDS011;67485;48.816;9.930;2023-09-19T10:56:51;1.88;;;0.90;;
78209;SDS011;67485;48.816;9.930;2023-09-19T10:59:19;2.38;;;1.10;;
78209;SDS011;67485;48.816;9.930;2023-09-19T11:04:34;1.85;;;0.90;;
78209;SDS011;67485;48.816;9.930;2023-09-19T11:07:05;2.37;;;1.10;;
78209;SDS011;67485;48.816;9.930;2023-09-19T11:09:50;2.55;;;1.08;;
78209;SDS011;67485;48.816;9.930;2023-09-19T11:15:06;3.83;;;1.20;;
78209;SDS011;67485;48.816;9.930;2023-09-19T11:17:39;3.00;;;1.48;;
78209;SDS011;67485;48.816;9.930;2023-09-19T11:30:51;2.50;;;1.40;;
78209;SDS011;67485;48.816;9.930;2023-09-19T11:36:11;2.97;;;1.10;;
78209;SDS011;67485;48.816;9.930;2023-09-19T11:43:53;2.50;;;1.13;;
78209;SDS011;67485;48.816;9.930;2023-09-19T11:46:25;3.10;;;1.40;;
78209;SDS011;67485;48.816;9.930;2023-09-19T11:48:53;2.28;;;1.17;;
78209;SDS011;67485;48.816;9.930;2023-09-19T11:51:23;2.75;;;1.13;;
78209;SDS011;67485;48.816;9.930;2023-09-19T11:53:55;1.63;;;1.20;;
78209;SDS011;67485;48.816;9.930;2023-09-19T11:56:25;2.08;;;1.10;;
78209;SDS011;67485;48.816;9.930;2023-09-19T11:59:00;2.67;;;1.65;;
78209;SDS011;67485;48.816;9.930;2023-09-19T12:01:30;4.33;;;1.50;;
78209;SDS011;67485;48.816;9.930;2023-09-19T12:03:59;2.17;;;1.20;;
78209;SDS011;67485;48.816;9.930;2023-09-19T12:06:27;2.78;;;1.17;;
78209;SDS011;67485;48.816;9.930;2023-09-19T12:09:01;2.08;;;1.42;;
78209;SDS011;67485;48.816;9.930;2023-09-19T12:11:40;2.28;;;1.23;;
78209;SDS011;67485;48.816;9.930;2023-09-19T12:14:07;4.60;;;1.77;;
78209;SDS011;67485;48.816;9.930;2023-09-19T12:16:33;2.42;;;1.25;;
78209;SDS011;67485;48.816;9.930;2023-09-19T12:19:17;2.00;;;1.20;;
78209;SDS011;67485;48.816;9.930;2023-09-19T12:21:57;2.53;;;1.52;;
78209;SDS011;67485;48.816;9.930;2023-09-19T12:24:25;3.00;;;1.50;;
78209;SDS011;67485;48.816;9.930;2023-09-19T12:26:56;2.80;;;1.40;;
78209;SDS011;67485;48.816;9.930;2023-09-19T12:29:29;4.13;;;1.38;;
78209;SDS011;67485;48.816;9.930;2023-09-19T12:31:57;3.97;;;1.15;;
78209;SDS011;67485;48.816;9.930;2023-09-19T12:34:25;3.70;;;1.50;;
78209;SDS011;67485;48.816;9.930;2023-09-19T12:37:04;5.17;;;1.20;;
78209;SDS011;67485;48.816;9.930;2023-09-19T12:39:40;2.58;;;1.10;;
78209;SDS011;67485;48.816;9.930;2023-09-19T12:42:09;3.03;;;1.33;;
78209;SDS011;67485;48.816;9.930;2023-09-19T12:44:36;2.20;;;1.27;;
78209;SDS011;67485;48.816;9.930;2023-09-19T12:47:23;3.15;;;1.40;;
78209;SDS011;67485;48.816;9.930;2023-09-19T12:52:39;3.28;;;1.10;;
78209;SDS011;67485;48.816;9.930;2023-09-19T12:55:06;2.08;;;1.20;;
78209;SDS011;67485;48.816;9.930;2023-09-19T12:57:35;2.92;;;1.40;;
78209;SDS011;67485;48.816;9.930;2023-09-19T13:00:02;2.15;;;1.20;;
78209;SDS011;67485;48.816;9.930;2023-09-19T13:02:31;3.53;;;1.20;;
78209;SDS011;67485;48.816;9.930;2023-09-19T13:04:57;4.45;;;1.25;;
78209;SDS011;67485;48.816;9.930;2023-09-19T13:07:42;2.90;;;1.40;;
78209;SDS011;67485;48.816;9.930;2023-09-19T13:10:12;2.35;;;0.90;;
78209;SDS011;67485;48.816;9.930;2023-09-19T13:12:42;1.80;;;1.13;;
78209;SDS011;67485;48.816;9.930;2023-09-19T13:15:15;4.00;;;1.40;;
78209;SDS011;67485;48.816;9.930;2023-09-19T13:17:51;3.05;;;1.35;;
78209;SDS011;67485;48.816;9.930;2023-09-19T13:20:24;1.95;;;1.17;;
78209;SDS011;67485;48.816;9.930;2023-09-19T13:22:54;3.80;;;1.13;;
78209;SDS011;67485;48.816;9.930;2023-09-19T13:25:24;2.30;;;1.20;;
78209;SDS011;67485;48.816;9.930;2023-09-19T13:27:51;2.37;;;1.30;;
78209;SDS011;67485;48.816;9.930;2023-09-19T13:30:21;2.00;;;1.10;;
78209;SDS011;67485;48.816;9.930;2023-09-19T13:32:50;2.72;;;1.38;;
78209;SDS011;67485;48.816;9.930;2023-09-19T13:35:18;1.95;;;1.15;;
78209;SDS011;67485;48.816;9.930;2023-09-19T13:37:44;3.13;;;1.40;;
78209;SDS011;67485;48.816;9.930;2023-09-19T13:40:14;2.43;;;1.40;;
78209;SDS011;67485;48.816;9.930;2023-09-19T13:42:40;3.25;;;1.30;;
78209;SDS011;67485;48.816;9.930;2023-09-19T13:45:07;2.08;;;0.95;;
78209;SDS011;67485;48.816;9.930;2023-09-19T13:47:37;2.03;;;1.05;;
78209;SDS011;67485;48.816;9.930;2023-09-19T13:50:03;3.78;;;1.48;;
78209;SDS011;67485;48.816;9.930;2023-09-19T13:52:30;2.13;;;0.90;;
78209;SDS011;67485;48.816;9.930;2023-09-19T13:54:57;1.48;;;0.90;;
78209;SDS011;67485;48.816;9.930;2023-09-19T13:57:23;2.40;;;1.00;;
78209;SDS011;67485;48.816;9.930;2023-09-19T13:59:51;2.40;;;1.05;;
78209;SDS011;67485;48.816;9.930;2023-09-19T14:02:20;2.65;;;0.90;;
78209;SDS011;67485;48.816;9.930;2023-09-19T14:04:48;2.80;;;1.10;;
78209;SDS011;67485;48.816;9.930;2023-09-19T14:07:14;2.35;;;1.00;;
78209;SDS011;67485;48.816;9.930;2023-09-19T14:09:40;3.15;;;1.08;;
78209;SDS011;67485;48.816;9.930;2023-09-19T14:12:06;2.45;;;1.08;;
78209;SDS011;67485;48.816;9.930;2023-09-19T14:14:32;3.47;;;1.30;;
78209;SDS011;67485;48.816;9.930;2023-09-19T14:16:58;2.03;;;1.30;;
78209;SDS011;67485;48.816;9.930;2023-09-19T14:19:26;3.45;;;1.10;;
78209;SDS011;67485;48.816;9.930;2023-09-19T14:21:52;2.03;;;1.20;;
78209;SDS011;67485;48.816;9.930;2023-09-19T14:24:20;3.65;;;1.45;;
78209;SDS011;67485;48.816;9.930;2023-09-19T14:26:46;2.67;;;1.58;;
78209;SDS011;67485;48.816;9.930;2023-09-19T14:29:12;2.72;;;1.40;;
78209;SDS011;67485;48.816;9.930;2023-09-19T14:31:38;2.93;;;1.30;;
78209;SDS011;67485;48.816;9.930;2023-09-19T14:34:05;2.45;;;1.20;;
78209;SDS011;67485;48.816;9.930;2023-09-19T14:36:31;2.97;;;1.42;;
78209;SDS011;67485;48.816;9.930;2023-09-19T14:38:58;3.85;;;1.33;;
78209;SDS011;67485;48.816;9.930;2023-09-19T14:41:24;1.97;;;1.13;;
78209;SDS011;67485;48.816;9.930;2023-09-19T14:43:51;2.72;;;1.25;;
78209;SDS011;67485;48.816;9.930;2023-09-19T14:46:17;2.30;;;1.13;;
78209;SDS011;67485;48.816;9.930;2023-09-19T14:48:44;3.10;;;0.90;;
78209;SDS011;67485;48.816;9.930;2023-09-19T14:51:12;5.22;;;1.38;;
78209;SDS011;67485;48.816;9.930;2023-09-19T14:53:39;2.50;;;1.20;;
78209;SDS011;67485;48.816;9.930;2023-09-19T14:56:09;4.88;;;1.10;;
78209;SDS011;67485;48.816;9.930;2023-09-19T14:58:35;2.10;;;1.13;;
78209;SDS011;67485;48.816;9.930;2023-09-19T15:01:02;1.98;;;1.20;;
78209;SDS011;67485;48.816;9.930;2023-09-19T15:03:29;1.50;;;0.80;;
78209;SDS011;67485;48.816;9.930;2023-09-19T15:06:02;3.88;;;1.15;;
78209;SDS011;67485;48.816;9.930;2023-09-19T15:08:30;2.55;;;1.13;;
78209;SDS011;67485;48.816;9.930;2023-09-19T15:10:56;2.08;;;0.95;;
78209;SDS011;67485;48.816;9.930;2023-09-19T15:13:24;2.42;;;1.00;;
78209;SDS011;67485;48.816;9.930;2023-09-19T15:16:03;1.90;;;1.10;;
78209;SDS011;67485;48.816;9.930;2023-09-19T15:18:34;2.45;;;1.15;;
78209;SDS011;67485;48.816;9.930;2023-09-19T15:21:06;2.40;;;1.25;;
78209;SDS011;67485;48.816;9.930;2023-09-19T15:23:33;2.45;;;1.00;;
78209;SDS011;67485;48.816;9.930;2023-09-19T15:26:00;2.67;;;1.20;;
78209;SDS011;67485;48.816;9.930;2023-09-19T15:28:28;3.57;;;1.10;;
78209;SDS011;67485;48.816;9.930;2023-09-19T15:31:11;2.50;;;1.20;;
78209;SDS011;67485;48.816;9.930;2023-09-19T15:33:37;2.88;;;1.20;;
78209;SDS011;67485;48.816;9.930;2023-09-19T15:36:07;5.88;;;1.10;;
78209;SDS011;67485;48.816;9.930;2023-09-19T15:41:17;1.97;;;1.00;;
78209;SDS011;67485;48.816;9.930;2023-09-19T15:43:42;2.40;;;1.08;;
78209;SDS011;67485;48.816;9.930;2023-09-19T15:46:08;2.30;;;1.17;;